Flight Track Log - Related Links

Times and Time Zones

All times are in EDT time to prevent confusion due to time zone crossing. See the N8110C flight status page for this flight to view local times or setup timezone preferences in your user account.

Time Position Orientation Groundspeed Altitude Reporting Facility
EDT Latitude Longitude Course Direction KTS MPH feet Rate Location/Type
Tue 12:41:19 PM 42.6442 -85.4111 218° Southwest 102 117 3,000  Level Chicago Center
Tue 12:42:22 PM 42.6256 -85.4369 226° Southwest 97 112 3,000  Level Chicago Center
Tue 12:43:23 PM 42.6025 -85.4667 224° Southwest 97 112 3,000  Level Chicago Center
Tue 12:44:25 PM 42.5825 -85.4906 221° Southwest 96 110 3,000  Level Chicago Center
Tue 12:45:27 PM 42.5603 -85.5133 217° Southwest 102 117 3,000  Level Chicago Center
Tue 12:46:00 PM 42.4838 -85.5215 218° Southwest  Level Estimated
Tue 12:46:30 PM 42.5378 -85.5350 215° Southwest 100 115 3,000  Level Chicago Center
Tue 12:47:32 PM 42.5150 -85.5564 215° Southwest 100 115 3,000  Level Chicago Center
Tue 12:48:34 PM 42.4944 -85.5789 219° Southwest 97 112 3,000  Level Chicago Center
Tue 12:49:36 PM 42.4681 -85.6064 218° Southwest 98 113 3,000  Level Chicago Center
Tue 12:50:38 PM 42.4472 -85.6314 222° Southwest 99 114 3,000 -48 Level Chicago Center
Tue 12:51:40 PM 42.4261 -85.6553 220° Southwest 99 114 2,900  Descending Chicago Center
Tue 12:52:42 PM 42.4078 -85.6836 229° Southwest 99 114 3,000  Climbing Chicago Center
Tue 12:53:44 PM 42.3872 -85.7119 226° Southwest 103 119 2,900  Descending Chicago Center
Tue 12:54:46 PM 42.3669 -85.7389 224° Southwest 103 119 3,000  Climbing Chicago Center
Tue 12:55:48 PM 42.3467 -85.7639 222° Southwest 100 115 2,900  Descending Chicago Center
Tue 12:56:50 PM 42.3239 -85.7961 226° Southwest 99 114 3,000 48 Climbing Chicago Center
Tue 12:57:52 PM 42.3064 -85.8225 228° Southwest 96 110 3,000 48 Level Chicago Center
Tue 12:58:54 PM 42.2886 -85.8517 231° Southwest 99 114 3,100  Climbing Chicago Center
Tue 12:59:57 PM 42.2653 -85.8836 225° Southwest 105 121 3,000 -144 Descending Chicago Center
Tue 01:00:59 PM 42.2428 -85.9108 222° Southwest 109 125 2,800 -48 Descending Chicago Center
Tue 01:02:01 PM 42.2244 -85.9389 229° Southwest 104 120 2,900 145 Climbing Chicago Center
Tue 01:03:03 PM 42.2089 -85.9658 232° Southwest 96 110 3,100  Climbing Chicago Center
Tue 01:04:05 PM 42.1903 -85.9914 225° Southwest 94 108 2,900 -97 Descending Chicago Center
Tue 01:05:07 PM 42.1700 -86.0261 232° Southwest 97 112 2,900  Level Chicago Center
Tue 01:06:09 PM 42.1553 -86.0539 234° Southwest 94 108 2,900 97 Level Chicago Center
Tue 01:07:11 PM 42.1422 -86.0825 238° Southwest 91 105 3,100 97 Climbing Chicago Center
Tue 01:08:13 PM 42.1275 -86.1072 231° Southwest 87 100 3,100 -97 Level Chicago Center
Tue 01:09:15 PM 42.1108 -86.1356 232° Southwest 93 107 2,900 -48 Descending Chicago Center
Tue 01:10:17 PM 42.0872 -86.1631 221° Southwest 95 109 3,000 97 Climbing Chicago Center
Tue 01:11:19 PM 42.0614 -86.1756 200° South 98 113 3,100 -48 Climbing Chicago Center
Tue 01:12:21 PM 42.0331 -86.1850 194° South 102 117 2,900 -96 Descending Chicago Center
Tue 01:13:24 PM 42.0089 -86.1967 200° South 98 113 2,900  Level Chicago Center
Tue 01:14:26 PM 41.9864 -86.2056 196° South 91 105 2,900 97 Level Chicago Center
Tue 01:15:28 PM 41.9639 -86.2133 194° South 87 100 3,100 48 Climbing Chicago Center
Tue 01:16:30 PM 41.9336 -86.2261 197° South 90 104 3,000 -97 Descending Chicago Center
Tue 01:17:32 PM 41.9083 -86.2433 207° Southwest 95 109 2,900 -97 Descending Chicago Center
Tue 01:18:34 PM 41.8839 -86.2575 203° Southwest 96 110 2,800  Descending Chicago Center
Tue 01:19:36 PM 41.8608 -86.2692 201° Southwest 94 108 2,900 48 Climbing Chicago Center
Tue 01:20:38 PM 41.8375 -86.2806 200° South 91 105 2,900 -145 Level Chicago Center
Tue 01:21:40 PM 41.8067 -86.2867 188° South 92 106 2,600 -242 Descending Chicago Center
Tue 01:22:42 PM 41.7814 -86.2861 179° South 92 106 2,400 -290 Descending Chicago Center
Tue 01:23:44 PM 41.7569 -86.2842 177° South 91 105 2,000 -339 Descending Chicago Center
Tue 01:24:46 PM 41.7339 -86.2928 196° South 88 101 1,700 -242 Descending Chicago Center
Tue 01:25:48 PM 41.7083 -86.2897 175° South 86 99 1,500 -194 Descending Chicago Center

Login

Don't have an account? Register now (free) for customized features, flight alerts, and more!